Belle Isle, Mississippi
Current Conditions -  °F | °C
As of 2:53 PM on Thursday 27 Nov 2014 (Local Time) from KASD Reporting Station
Clear Clear  
Wind Chill: 61°   Ceiling: Unl
Heat Index: 61°   Visibility: 10mi
Dew Point: 27°   Wind: 13mph
Humidity: 27%   Direction: 360°N
Pressure: 30.38"   Gusts: NA
Location:  30.2285°N, 89.5997°W
Report Text: KASD 272053Z AUTO 36011KT 10SM CLR 16/M03 A3038 RMK AO2 SLP286 T01611028 55008
Loading
Personal Weather Stations






























Interactive Weather Map New forecast layout! Learn more

10-Day Weather Forecast

Advertisements
Track Severe Weather on mobile